Time;durP1;ratioP1;P1;durP2;ratioP2;P2;SDS_P1;SDS_P2;PMS_P1;PMS_P2;Temp;Humidity;BMP_temperature;BMP_pressure;BME280_temperature;BME280_humidity;BME280_pressure;Samples;Min_cycle;Max_cycle;Signal;HPM_P1;HPM_P2
2023/01/02 00:01:45;;;;;;;4.72;2.25;;;;;;;;;;5048949;28;20033;-78
2023/01/02 00:04:11;;;;;;;5.75;3.13;;;;;;;;;;5046291;28;20425;-78
2023/01/02 00:06:38;;;;;;;6.05;3.70;;;;;;;;;;5050049;28;20151;-78
2023/01/02 00:09:05;;;;;;;8.90;4.13;;;;;;;;;;5045518;28;20118;-77
2023/01/02 00:11:31;;;;;;;9.25;4.13;;;;;;;;;;5046531;28;20049;-78
2023/01/02 00:13:57;;;;;;;8.52;3.78;;;;;;;;;;5046104;28;20135;-78
2023/01/02 00:16:23;;;;;;;5.25;3.33;;;;;;;;;;5044194;28;20052;-78
2023/01/02 00:18:50;;;;;;;4.57;3.33;;;;;;;;;;5048481;28;20048;-78
2023/01/02 00:21:16;;;;;;;4.43;3.13;;;;;;;;;;5040386;28;20764;-77
2023/01/02 00:23:42;;;;;;;5.00;3.05;;;;;;;;;;5044966;28;20116;-78
2023/01/02 00:26:08;;;;;;;6.35;3.42;;;;;;;;;;5038196;28;20479;-79
2023/01/02 00:28:36;;;;;;;5.82;3.13;;;;;;;;;;5047037;28;20044;-78
2023/01/02 00:31:06;;;;;;;5.20;3.28;;;;;;;;;;5040735;28;20086;-78
2023/01/02 00:33:32;;;;;;;4.53;3.10;;;;;;;;;;5039263;28;20695;-78
2023/01/02 00:35:58;;;;;;;6.28;3.30;;;;;;;;;;5046268;28;20057;-78
2023/01/02 00:38:24;;;;;;;4.65;3.20;;;;;;;;;;5041882;28;20082;-78
2023/01/02 00:40:50;;;;;;;4.10;2.97;;;;;;;;;;5044797;28;20488;-78
2023/01/02 00:43:16;;;;;;;6.18;3.10;;;;;;;;;;5041973;28;20045;-78
2023/01/02 00:45:42;;;;;;;6.18;3.15;;;;;;;;;;5039703;28;20122;-79
2023/01/02 00:48:08;;;;;;;5.38;3.20;;;;;;;;;;5040878;28;20045;-79
2023/01/02 00:50:34;;;;;;;3.97;2.85;;;;;;;;;;5041185;28;20055;-78
2023/01/02 00:53:01;;;;;;;4.03;2.88;;;;;;;;;;5045319;28;20060;-78
2023/01/02 00:55:27;;;;;;;4.47;2.90;;;;;;;;;;5043276;28;20063;-78
2023/01/02 00:57:53;;;;;;;5.78;3.17;;;;;;;;;;5049471;28;20033;-78
2023/01/02 01:00:19;;;;;;;4.45;2.97;;;;;;;;;;5042955;28;20421;-78
2023/01/02 01:02:45;;;;;;;4.50;3.20;;;;;;;;;;5044483;28;20094;-79
2023/01/02 01:05:11;;;;;;;4.22;3.08;;;;;;;;;;5044887;28;20037;-78
2023/01/02 01:07:37;;;;;;;5.05;3.13;;;;;;;;;;5041106;28;20472;-79
2023/01/02 01:10:03;;;;;;;5.03;3.50;;;;;;;;;;5044284;28;20045;-78
2023/01/02 01:12:30;;;;;;;4.93;3.47;;;;;;;;;;5037517;28;20261;-78
2023/01/02 01:14:56;;;;;;;4.30;3.50;;;;;;;;;;5040440;28;20041;-78
2023/01/02 01:17:22;;;;;;;3.95;3.22;;;;;;;;;;5040174;28;20053;-78
2023/01/02 01:19:48;;;;;;;3.70;3.38;;;;;;;;;;5041217;28;20045;-78
2023/01/02 01:22:14;;;;;;;6.45;3.90;;;;;;;;;;5039329;28;20045;-78
2023/01/02 01:24:41;;;;;;;7.07;3.95;;;;;;;;;;5044505;28;20453;-78
2023/01/02 01:27:07;;;;;;;6.30;4.10;;;;;;;;;;5040291;28;20052;-78
2023/01/02 01:29:33;;;;;;;4.32;3.53;;;;;;;;;;5043360;28;20411;-78
2023/01/02 01:31:59;;;;;;;6.00;4.07;;;;;;;;;;5044464;28;20033;-78
2023/01/02 01:34:25;;;;;;;5.75;3.88;;;;;;;;;;5035950;28;20167;-78
2023/01/02 01:36:51;;;;;;;4.85;3.70;;;;;;;;;;5044560;28;20041;-78
2023/01/02 01:39:17;;;;;;;5.22;3.50;;;;;;;;;;5045985;28;20067;-78
2023/01/02 01:41:43;;;;;;;3.58;3.28;;;;;;;;;;5043859;28;20518;-78
2023/01/02 01:44:27;;;;;;;5.00;3.65;;;;;;;;;;5049180;28;20056;-78
2023/01/02 01:46:53;;;;;;;4.10;3.70;;;;;;;;;;5041629;28;20048;-78
2023/01/02 01:49:28;;;;;;;4.30;3.90;;;;;;;;;;5049107;28;20036;-78
2023/01/02 01:51:54;;;;;;;7.15;4.28;;;;;;;;;;5043928;28;20049;-78
2023/01/02 01:54:23;;;;;;;4.97;4.45;;;;;;;;;;5047911;28;20133;-78
2023/01/02 01:56:51;;;;;;;4.88;4.25;;;;;;;;;;5041680;28;20052;-77
2023/01/02 01:59:18;;;;;;;6.90;5.25;;;;;;;;;;5048855;28;20052;-78
2023/01/02 02:01:45;;;;;;;6.28;5.50;;;;;;;;;;5048515;28;20118;-78
2023/01/02 02:04:12;;;;;;;6.88;5.55;;;;;;;;;;5070155;28;21410;-78
2023/01/02 02:06:38;;;;;;;7.03;5.53;;;;;;;;;;5049775;28;20040;-78
2023/01/02 02:09:09;;;;;;;6.05;5.25;;;;;;;;;;5048739;28;20120;-78
2023/01/02 02:11:35;;;;;;;8.07;5.32;;;;;;;;;;5045359;28;20464;-78
2023/01/02 02:14:01;;;;;;;7.35;5.82;;;;;;;;;;5044385;28;20546;-78
2023/01/02 02:16:40;;;;;;;5.95;5.25;;;;;;;;;;5051438;28;20056;-78
2023/01/02 02:19:14;;;;;;;6.75;5.60;;;;;;;;;;5049147;28;20480;-78
2023/01/02 02:21:41;;;;;;;;;;;;;;;;;;5045740;28;20041;-78
2023/01/02 02:24:26;;;;;;;7.20;5.70;;;;;;;;;;5044596;28;19927;-78
2023/01/02 02:26:55;;;;;;;8.30;6.07;;;;;;;;;;5038771;28;20057;-78
2023/01/02 02:29:40;;;;;;;14.32;6.88;;;;;;;;;;5053542;28;20044;-78
2023/01/02 02:32:18;;;;;;;13.80;6.32;;;;;;;;;;5045943;28;20041;-79
2023/01/02 02:34:44;;;;;;;22.80;7.72;;;;;;;;;;5039088;28;20053;-78
2023/01/02 02:37:33;;;;;;;9.40;7.25;;;;;;;;;;5041870;28;20048;-78
2023/01/02 02:40:08;;;;;;;33.83;8.45;;;;;;;;;;5047181;28;20049;-78
2023/01/02 02:42:54;;;;;;;13.23;7.80;;;;;;;;;;5048040;28;20037;-79
2023/01/02 02:45:25;;;;;;;16.30;8.25;;;;;;;;;;5044213;28;20084;-79
2023/01/02 02:47:58;;;;;;;30.70;8.80;;;;;;;;;;5048077;28;20041;-78
2023/01/02 02:50:32;;;;;;;19.63;9.43;;;;;;;;;;5046360;28;20131;-78
2023/01/02 02:53:04;;;;;;;24.65;9.48;;;;;;;;;;5043331;28;20450;-79
2023/01/02 02:55:35;;;;;;;24.30;9.65;;;;;;;;;;5047228;28;20048;-79
2023/01/02 02:58:01;;;;;;;39.58;10.63;;;;;;;;;;5047516;28;20041;-79
2023/01/02 03:00:27;;;;;;;21.60;10.88;;;;;;;;;;5043915;28;20720;-78
2023/01/02 03:02:53;;;;;;;20.52;10.80;;;;;;;;;;5045042;28;20364;-78
2023/01/02 03:05:28;;;;;;;17.88;11.88;;;;;;;;;;5044273;28;20114;-78
2023/01/02 03:07:58;;;;;;;19.52;11.80;;;;;;;;;;5042025;28;20048;-78
2023/01/02 03:10:24;;;;;;;19.60;12.90;;;;;;;;;;5045651;28;20044;-78
2023/01/02 03:13:09;;;;;;;18.70;14.43;;;;;;;;;;5047383;28;20504;-78
2023/01/02 03:15:40;;;;;;;21.80;15.05;;;;;;;;;;5039978;28;20497;-79
2023/01/02 03:18:06;;;;;;;21.98;15.60;;;;;;;;;;5043140;28;20126;-79
2023/01/02 03:20:37;;;;;;;20.98;14.82;;;;;;;;;;5047089;28;20499;-79
2023/01/02 03:23:05;;;;;;;23.70;16.10;;;;;;;;;;5042619;28;20048;-79
2023/01/02 03:25:33;;;;;;;25.10;16.52;;;;;;;;;;5043321;28;20128;-79
2023/01/02 03:28:00;;;;;;;24.40;16.50;;;;;;;;;;5042044;28;20478;-78
2023/01/02 03:30:27;;;;;;;22.20;17.95;;;;;;;;;;5046340;28;20057;-79
2023/01/02 03:32:59;;;;;;;25.40;18.67;;;;;;;;;;5049246;28;20412;-78
2023/01/02 03:35:32;;;;;;;25.67;19.50;;;;;;;;;;5045135;28;20053;-79
2023/01/02 03:37:59;;;;;;;27.98;20.60;;;;;;;;;;5046046;28;20071;-79
2023/01/02 03:40:31;;;;;;;24.45;19.65;;;;;;;;;;5045229;28;20098;-79
2023/01/02 03:43:00;;;;;;;24.73;19.80;;;;;;;;;;5041762;28;20127;-79
2023/01/02 03:45:46;;;;;;;27.45;20.85;;;;;;;;;;5045096;28;20047;-78
2023/01/02 03:48:12;;;;;;;28.35;20.00;;;;;;;;;;5046193;28;20072;-78
2023/01/02 03:50:44;;;;;;;28.58;20.65;;;;;;;;;;5046958;28;20111;-78
2023/01/02 03:53:11;;;;;;;26.88;20.80;;;;;;;;;;5044441;28;20034;-78
2023/01/02 03:55:37;;;;;;;24.65;19.45;;;;;;;;;;5049116;28;20079;-78
2023/01/02 03:58:16;;;;;;;24.05;18.40;;;;;;;;;;5040979;28;20044;-78
2023/01/02 04:00:53;;;;;;;20.80;18.40;;;;;;;;;;5049622;28;20082;-78
2023/01/02 04:03:28;;;;;;;20.98;17.73;;;;;;;;;;5044072;28;20459;-78
2023/01/02 04:05:58;;;;;;;20.70;17.33;;;;;;;;;;5050304;28;20049;-78
2023/01/02 04:08:30;;;;;;;19.45;17.23;;;;;;;;;;5048774;28;20053;-78
2023/01/02 04:10:57;;;;;;;20.77;17.90;;;;;;;;;;5051075;28;20053;-78
2023/01/02 04:13:28;;;;;;;20.35;17.45;;;;;;;;;;5043584;28;20124;-78
2023/01/02 04:15:54;;;;;;;22.52;17.88;;;;;;;;;;5043791;28;20434;-77
2023/01/02 04:18:24;;;;;;;22.90;18.35;;;;;;;;;;5050078;28;20515;-78
2023/01/02 04:20:53;;;;;;;22.92;17.75;;;;;;;;;;5049938;28;20041;-77
2023/01/02 04:23:22;;;;;;;22.35;18.85;;;;;;;;;;5042255;28;20037;-78
2023/01/02 04:25:55;;;;;;;24.70;18.58;;;;;;;;;;5043830;28;20037;-78
2023/01/02 04:28:26;;;;;;;21.10;18.05;;;;;;;;;;5076328;28;20440;-78
2023/01/02 04:30:54;;;;;;;25.70;18.85;;;;;;;;;;5049734;28;20072;-78
2023/01/02 04:33:21;;;;;;;23.10;20.02;;;;;;;;;;5048270;28;20304;-78
2023/01/02 04:35:47;;;;;;;26.48;20.40;;;;;;;;;;5046096;28;20076;-78
2023/01/02 04:38:13;;;;;;;25.05;20.40;;;;;;;;;;5045462;28;20041;-78
2023/01/02 04:40:39;;;;;;;29.83;21.67;;;;;;;;;;5048272;28;20057;-79
2023/01/02 04:43:07;;;;;;;27.55;21.13;;;;;;;;;;5047943;28;20037;-79
2023/01/02 04:45:33;;;;;;;32.97;21.52;;;;;;;;;;5042556;28;20123;-78
2023/01/02 04:47:59;;;;;;;28.70;22.25;;;;;;;;;;5050932;28;20128;-79
2023/01/02 04:50:25;;;;;;;35.47;23.13;;;;;;;;;;5072229;28;20144;-78
2023/01/02 04:52:51;;;;;;;35.05;22.80;;;;;;;;;;5047323;28;20085;-78
2023/01/02 04:55:17;;;;;;;32.67;22.92;;;;;;;;;;5045530;28;20076;-79
2023/01/02 04:57:43;;;;;;;31.77;22.98;;;;;;;;;;5042459;28;20435;-79
2023/01/02 05:00:09;;;;;;;32.50;22.02;;;;;;;;;;5046174;28;20080;-79
2023/01/02 05:02:36;;;;;;;28.20;17.25;;;;;;;;;;5046219;28;20063;-79
2023/01/02 05:05:02;;;;;;;18.83;10.63;;;;;;;;;;5047163;28;20500;-78
2023/01/02 05:07:28;;;;;;;17.83;7.72;;;;;;;;;;5078714;28;20511;-79
2023/01/02 05:09:54;;;;;;;12.07;5.30;;;;;;;;;;5048117;28;20041;-79
2023/01/02 05:12:20;;;;;;;6.97;3.60;;;;;;;;;;5047670;28;20044;-79
2023/01/02 05:14:46;;;;;;;7.22;3.15;;;;;;;;;;5047421;28;20052;-79
2023/01/02 05:17:12;;;;;;;7.55;3.08;;;;;;;;;;5045669;28;20396;-79
2023/01/02 05:19:38;;;;;;;7.50;2.25;;;;;;;;;;5054372;28;20049;-79
2023/01/02 05:24:49;;;;;;;7.50;2.10;;;;;;;;;;5043927;28;20072;-79
2023/01/02 05:27:15;;;;;;;5.97;2.80;;;;;;;;;;5049697;28;20495;-79
2023/01/02 05:29:41;;;;;;;7.13;2.40;;;;;;;;;;5051794;28;20120;-79
2023/01/02 05:32:07;;;;;;;8.65;2.80;;;;;;;;;;5041927;28;20037;-79
2023/01/02 05:34:33;;;;;;;5.65;2.22;;;;;;;;;;5042306;28;20062;-79
2023/01/02 05:36:59;;;;;;;6.28;2.10;;;;;;;;;;5049744;28;20045;-79
2023/01/02 05:39:25;;;;;;;5.10;2.28;;;;;;;;;;5046978;28;20045;-79
2023/01/02 05:41:51;;;;;;;6.22;2.20;;;;;;;;;;5051347;28;20067;-79
2023/01/02 05:44:17;;;;;;;5.80;1.80;;;;;;;;;;5079765;28;20575;-78
2023/01/02 05:46:43;;;;;;;6.85;1.70;;;;;;;;;;5050340;28;20044;-79
2023/01/02 05:49:09;;;;;;;4.90;2.00;;;;;;;;;;5040972;28;20148;-78
2023/01/02 05:51:36;;;;;;;5.22;1.90;;;;;;;;;;5051284;28;20044;-79
2023/01/02 05:54:02;;;;;;;8.30;2.08;;;;;;;;;;5043871;28;20041;-79
2023/01/02 05:56:29;;;;;;;6.07;1.98;;;;;;;;;;5081600;28;20688;-79
2023/01/02 05:58:55;;;;;;;3.55;2.22;;;;;;;;;;5052570;28;20423;-79
2023/01/02 06:01:22;;;;;;;7.68;2.38;;;;;;;;;;5043834;28;20049;-79
2023/01/02 06:03:49;;;;;;;5.13;1.70;;;;;;;;;;5051757;28;20041;-79
2023/01/02 06:06:16;;;;;;;5.57;1.70;;;;;;;;;;5049694;28;20083;-79
2023/01/02 06:08:42;;;;;;;3.90;1.90;;;;;;;;;;5081206;28;20407;-79
2023/01/02 06:11:08;;;;;;;3.38;1.85;;;;;;;;;;5047673;28;20051;-79
2023/01/02 06:13:35;;;;;;;5.25;1.98;;;;;;;;;;5050250;28;20040;-78
2023/01/02 06:16:02;;;;;;;4.75;1.92;;;;;;;;;;5044797;28;20052;-79
2023/01/02 06:18:28;;;;;;;3.05;1.70;;;;;;;;;;5049044;28;20041;-79
2023/01/02 06:20:58;;;;;;;3.03;1.90;;;;;;;;;;5044257;28;20044;-78
2023/01/02 06:23:24;;;;;;;3.20;2.10;;;;;;;;;;5053875;28;20041;-79
2023/01/02 06:25:50;;;;;;;4.65;1.63;;;;;;;;;;5046197;28;20086;-79
2023/01/02 06:28:16;;;;;;;2.75;1.67;;;;;;;;;;5051967;28;20076;-79
2023/01/02 06:30:42;;;;;;;6.88;1.90;;;;;;;;;;5075054;28;20080;-79
2023/01/02 06:33:08;;;;;;;2.90;1.67;;;;;;;;;;5045663;28;20041;-78
2023/01/02 06:35:35;;;;;;;4.50;2.05;;;;;;;;;;5045708;28;20404;-79
2023/01/02 06:38:01;;;;;;;4.70;2.05;;;;;;;;;;5050165;28;20116;-79
2023/01/02 06:40:27;;;;;;;4.55;2.00;;;;;;;;;;5052736;28;20068;-79
2023/01/02 06:42:53;;;;;;;4.10;1.80;;;;;;;;;;5048313;28;20082;-79
2023/01/02 06:45:19;;;;;;;5.68;2.30;;;;;;;;;;5048977;28;20147;-79
2023/01/02 06:47:45;;;;;;;7.10;2.25;;;;;;;;;;5045639;28;20400;-79
2023/01/02 06:50:11;;;;;;;6.90;2.70;;;;;;;;;;5044655;28;20530;-79
2023/01/02 06:52:37;;;;;;;4.07;2.05;;;;;;;;;;5043971;28;20037;-79
2023/01/02 06:55:03;;;;;;;5.82;2.33;;;;;;;;;;5049492;28;20057;-79
2023/01/02 06:57:29;;;;;;;6.32;2.47;;;;;;;;;;5047264;28;20132;-79
2023/01/02 06:59:56;;;;;;;5.25;2.63;;;;;;;;;;5051435;28;20047;-79
2023/01/02 07:02:22;;;;;;;3.40;2.40;;;;;;;;;;5043986;28;20144;-79
2023/01/02 07:04:48;;;;;;;5.20;2.72;;;;;;;;;;5047594;28;20453;-79
2023/01/02 07:07:14;;;;;;;5.93;2.72;;;;;;;;;;5042781;28;20041;-79
2023/01/02 07:09:40;;;;;;;5.47;2.38;;;;;;;;;;5046213;28;20049;-79
2023/01/02 07:12:06;;;;;;;7.47;2.75;;;;;;;;;;5047339;28;20040;-80
2023/01/02 07:14:32;;;;;;;5.13;3.00;;;;;;;;;;5043328;28;20056;-79
2023/01/02 07:16:58;;;;;;;5.60;2.60;;;;;;;;;;5044803;28;20400;-79
2023/01/02 07:19:24;;;;;;;11.05;3.40;;;;;;;;;;5046001;28;20041;-79
2023/01/02 07:21:50;;;;;;;8.20;3.15;;;;;;;;;;5042099;28;20040;-79
2023/01/02 07:24:16;;;;;;;6.82;3.70;;;;;;;;;;5045973;28;20100;-79
2023/01/02 07:26:42;;;;;;;6.50;3.50;;;;;;;;;;5046075;28;20479;-79
2023/01/02 07:29:08;;;;;;;5.43;3.28;;;;;;;;;;5042895;28;20044;-79
2023/01/02 07:31:34;;;;;;;6.72;2.97;;;;;;;;;;5044770;28;20052;-79
2023/01/02 07:34:00;;;;;;;6.40;3.10;;;;;;;;;;5047412;28;20061;-79
2023/01/02 07:36:26;;;;;;;5.40;2.45;;;;;;;;;;5038955;28;20056;-79
2023/01/02 07:38:53;;;;;;;6.97;2.20;;;;;;;;;;5046025;28;20049;-79
2023/01/02 07:41:21;;;;;;;3.65;1.90;;;;;;;;;;5043796;28;20041;-81
2023/01/02 07:43:47;;;;;;;5.68;2.00;;;;;;;;;;5051906;28;20098;-82
2023/01/02 07:46:14;;;;;;;5.00;2.10;;;;;;;;;;5047772;28;20548;-82
2023/01/02 07:48:41;;;;;;;6.53;1.90;;;;;;;;;;5046786;28;20092;-81
2023/01/02 07:51:07;;;;;;;4.18;2.13;;;;;;;;;;5034695;28;20034;-81
2023/01/02 07:53:34;;;;;;;4.25;1.70;;;;;;;;;;5041339;28;20150;-82
2023/01/02 07:56:00;;;;;;;4.63;2.42;;;;;;;;;;5049579;28;20045;-81
2023/01/02 07:58:27;;;;;;;4.55;1.70;;;;;;;;;;5064301;28;20047;-81
2023/01/02 08:00:53;;;;;;;5.38;1.55;;;;;;;;;;5039886;28;20041;-80
2023/01/02 08:03:19;;;;;;;2.17;1.52;;;;;;;;;;5049354;28;20388;-81
2023/01/02 08:05:45;;;;;;;4.10;1.63;;;;;;;;;;5048101;28;20040;-81
2023/01/02 08:08:12;;;;;;;2.58;1.33;;;;;;;;;;5051073;28;20045;-81
2023/01/02 08:10:38;;;;;;;5.47;1.88;;;;;;;;;;5035465;28;20060;-81
2023/01/02 08:13:04;;;;;;;4.25;1.70;;;;;;;;;;5051210;28;20094;-81
2023/01/02 08:15:31;;;;;;;4.28;1.67;;;;;;;;;;5056327;28;20045;-80
2023/01/02 08:17:57;;;;;;;2.88;1.50;;;;;;;;;;5046566;28;20045;-81
2023/01/02 08:20:24;;;;;;;4.90;1.75;;;;;;;;;;5048352;28;20136;-81
2023/01/02 08:22:50;;;;;;;3.83;1.52;;;;;;;;;;5051717;28;20426;-79
2023/01/02 08:25:16;;;;;;;3.78;1.42;;;;;;;;;;5046449;28;20049;-81
2023/01/02 08:27:42;;;;;;;5.80;1.70;;;;;;;;;;5048572;28;20072;-81
2023/01/02 08:30:09;;;;;;;4.90;2.10;;;;;;;;;;5050707;28;20433;-81
2023/01/02 08:32:36;;;;;;;4.70;1.77;;;;;;;;;;5047757;28;20044;-80
2023/01/02 08:35:02;;;;;;;4.03;1.70;;;;;;;;;;5077466;28;20507;-80
2023/01/02 08:37:28;;;;;;;3.47;1.80;;;;;;;;;;5046832;28;20371;-81
2023/01/02 08:39:54;;;;;;;3.58;1.50;;;;;;;;;;5049461;28;20131;-80
2023/01/02 08:42:20;;;;;;;2.95;1.63;;;;;;;;;;5047187;28;20045;-81
2023/01/02 08:44:46;;;;;;;4.63;2.00;;;;;;;;;;5039332;28;20538;-80
2023/01/02 08:47:12;;;;;;;3.80;2.45;;;;;;;;;;5045141;28;20053;-81
2023/01/02 08:49:38;;;;;;;4.90;2.53;;;;;;;;;;5046637;28;20095;-81
2023/01/02 08:52:04;;;;;;;7.18;2.50;;;;;;;;;;5050462;28;20124;-79
2023/01/02 08:54:30;;;;;;;4.63;2.70;;;;;;;;;;5051308;28;20053;-81
2023/01/02 08:56:56;;;;;;;5.07;2.90;;;;;;;;;;5048763;28;20045;-81
2023/01/02 08:59:23;;;;;;;8.80;2.97;;;;;;;;;;5066305;28;20041;-81
2023/01/02 09:01:49;;;;;;;5.45;2.63;;;;;;;;;;5053201;28;20059;-80
2023/01/02 09:04:15;;;;;;;6.25;2.75;;;;;;;;;;5050426;28;20049;-81
2023/01/02 09:06:42;;;;;;;6.80;2.60;;;;;;;;;;5055746;28;20055;-80
2023/01/02 09:09:08;;;;;;;5.18;2.50;;;;;;;;;;5052657;28;20033;-81
2023/01/02 09:11:35;;;;;;;5.75;2.35;;;;;;;;;;5063183;28;20052;-80
2023/01/02 09:14:02;;;;;;;5.93;2.25;;;;;;;;;;5064849;28;20044;-81
2023/01/02 09:16:28;;;;;;;4.55;2.10;;;;;;;;;;5049567;28;20055;-80
2023/01/02 09:18:59;;;;;;;4.45;1.80;;;;;;;;;;5043411;28;20048;-81
2023/01/02 09:21:25;;;;;;;2.90;1.70;;;;;;;;;;5052791;28;20046;-82
2023/01/02 09:23:51;;;;;;;2.40;1.50;;;;;;;;;;5047273;28;20048;-81
2023/01/02 09:26:17;;;;;;;3.20;1.50;;;;;;;;;;5048949;28;20426;-80
2023/01/02 09:28:44;;;;;;;3.35;1.52;;;;;;;;;;5039912;28;20176;-82
2023/01/02 09:31:11;;;;;;;5.00;1.60;;;;;;;;;;5037372;28;20107;-80
2023/01/02 09:33:38;;;;;;;3.33;1.42;;;;;;;;;;5046403;28;20053;-81
2023/01/02 09:36:05;;;;;;;2.30;1.50;;;;;;;;;;5049388;28;20496;-81
2023/01/02 09:38:31;;;;;;;5.60;1.95;;;;;;;;;;5045508;28;20124;-79
2023/01/02 09:40:58;;;;;;;4.15;1.65;;;;;;;;;;5044649;28;20072;-82
2023/01/02 09:43:29;;;;;;;7.88;3.95;;;;;;;;;;5041131;28;20045;-81
2023/01/02 09:45:57;;;;;;;7.40;3.20;;;;;;;;;;5045154;28;20060;-81
2023/01/02 09:48:23;;;;;;;7.75;2.80;;;;;;;;;;5042981;28;20059;-81
2023/01/02 09:50:49;;;;;;;6.60;2.38;;;;;;;;;;5044712;28;20435;-79
2023/01/02 09:53:15;;;;;;;5.50;2.17;;;;;;;;;;5045367;28;20125;-81
2023/01/02 09:55:44;;;;;;;7.85;2.38;;;;;;;;;;5051627;28;20445;-81
2023/01/02 09:58:36;;;;;;;12.68;2.60;;;;;;;;;;5038411;28;20041;-81
2023/01/02 10:01:03;;;;;;;9.10;2.40;;;;;;;;;;5042319;28;20048;-81
2023/01/02 10:03:29;;;;;;;9.20;2.40;;;;;;;;;;5043299;28;20136;-82
2023/01/02 10:06:14;;;;;;;9.27;2.30;;;;;;;;;;5041319;28;20048;-83
2023/01/02 10:08:45;;;;;;;7.00;2.67;;;;;;;;;;5047320;28;20056;-82
2023/01/02 10:11:34;;;;;;;10.65;2.70;;;;;;;;;;5044447;28;20053;-82
2023/01/02 10:14:08;;;;;;;11.18;2.78;;;;;;;;;;5077359;28;20044;-81
2023/01/02 10:16:35;;;;;;;;;;;;;;;;;;5047324;28;20049;-82
2023/01/02 10:19:03;;;;;;;11.25;2.80;;;;;;;;;;5042533;28;19943;-81
2023/01/02 10:21:31;;;;;;;11.82;2.60;;;;;;;;;;5073078;28;20601;-81
2023/01/02 10:24:03;;;;;;;12.55;2.78;;;;;;;;;;5044808;28;20041;-81
2023/01/02 10:26:33;;;;;;;10.70;2.30;;;;;;;;;;5049042;28;20381;-81
2023/01/02 10:29:18;;;;;;;7.53;2.35;;;;;;;;;;5081755;28;20067;-80
2023/01/02 10:31:47;;;;;;;7.80;2.33;;;;;;;;;;5042007;28;20155;-81
2023/01/02 10:34:16;;;;;;;7.93;2.00;;;;;;;;;;5042761;28;20060;-81
2023/01/02 10:36:43;;;;;;;9.73;2.05;;;;;;;;;;5078712;28;20049;-82
2023/01/02 10:39:13;;;;;;;6.28;2.40;;;;;;;;;;5072071;28;20131;-81
2023/01/02 10:41:39;;;;;;;10.05;2.40;;;;;;;;;;5075637;28;20048;-81
2023/01/02 10:44:10;;;;;;;8.80;2.38;;;;;;;;;;5046934;28;20049;-81
2023/01/02 10:46:37;;;;;;;7.28;2.28;;;;;;;;;;5046656;28;20127;-81
2023/01/02 10:49:04;;;;;;;5.18;2.20;;;;;;;;;;5042230;28;20054;-81
2023/01/02 10:51:30;;;;;;;11.98;2.35;;;;;;;;;;5044177;28;20082;-81
2023/01/02 10:54:04;;;;;;;9.30;2.67;;;;;;;;;;5046476;28;20044;-81
2023/01/02 10:56:31;;;;;;;9.65;3.03;;;;;;;;;;5043738;28;20063;-81
2023/01/02 10:58:58;;;;;;;10.05;2.47;;;;;;;;;;5072110;28;20037;-81
2023/01/02 11:01:24;;;;;;;8.15;2.10;;;;;;;;;;5044461;28;20480;-80
2023/01/02 11:03:53;;;;;;;9.60;2.30;;;;;;;;;;5040805;28;20066;-81
2023/01/02 11:06:28;;;;;;;10.00;2.30;;;;;;;;;;5045492;28;20373;-81
2023/01/02 11:09:14;;;;;;;5.80;1.90;;;;;;;;;;5043123;28;20049;-81
2023/01/02 11:11:47;;;;;;;8.15;2.60;;;;;;;;;;5045178;28;20049;-80
2023/01/02 11:14:13;;;;;;;7.57;2.38;;;;;;;;;;5042220;28;20048;-81
2023/01/02 11:16:40;;;;;;;9.25;2.13;;;;;;;;;;5045028;28;20048;-81
2023/01/02 11:19:13;;;;;;;8.32;2.55;;;;;;;;;;5041742;28;20056;-81
2023/01/02 11:21:42;;;;;;;10.25;2.55;;;;;;;;;;5050291;28;20169;-82
2023/01/02 11:24:18;;;;;;;7.05;2.40;;;;;;;;;;5044833;28;20037;-81
2023/01/02 11:26:45;;;;;;;9.23;2.45;;;;;;;;;;5046625;28;20079;-81
2023/01/02 11:29:16;;;;;;;10.23;2.83;;;;;;;;;;5040166;28;20389;-82
2023/01/02 11:31:46;;;;;;;7.22;2.47;;;;;;;;;;5042779;28;20068;-82
2023/01/02 11:34:20;;;;;;;11.48;2.65;;;;;;;;;;5047963;28;20053;-81
2023/01/02 11:36:46;;;;;;;7.38;2.60;;;;;;;;;;5044727;28;20511;-82
2023/01/02 11:39:19;;;;;;;11.75;2.97;;;;;;;;;;5043989;28;20100;-81
2023/01/02 11:44:33;;;;;;;10.05;2.92;;;;;;;;;;5050380;28;20864;-81
2023/01/02 11:47:00;;;;;;;7.07;2.92;;;;;;;;;;5050711;28;20111;-79
2023/01/02 11:49:29;;;;;;;10.40;2.72;;;;;;;;;;5047628;28;20262;-79
2023/01/02 11:51:57;;;;;;;14.40;3.72;;;;;;;;;;5045458;28;20056;-80
2023/01/02 11:54:29;;;;;;;13.35;3.05;;;;;;;;;;5046914;28;20059;-78
2023/01/02 11:56:58;;;;;;;11.23;3.33;;;;;;;;;;5049248;28;20040;-81
2023/01/02 11:59:46;;;;;;;18.05;4.45;;;;;;;;;;5041283;28;20045;-81
2023/01/02 12:02:22;;;;;;;12.75;4.18;;;;;;;;;;5047177;28;20176;-83
2023/01/02 12:04:48;;;;;;;12.73;4.13;;;;;;;;;;5043698;28;20029;-84
2023/01/02 12:07:14;;;;;;;14.07;3.72;;;;;;;;;;5044522;28;20044;-83
2023/01/02 12:09:49;;;;;;;14.30;4.57;;;;;;;;;;5042609;28;20078;-83
2023/01/02 12:12:31;;;;;;;12.35;3.13;;;;;;;;;;5043773;28;20127;-83
2023/01/02 12:14:57;;;;;;;15.60;4.40;;;;;;;;;;5048476;28;20037;-84
2023/01/02 12:17:42;;;;;;;19.15;4.22;;;;;;;;;;5045339;28;20099;-83
2023/01/02 12:20:17;;;;;;;14.10;3.80;;;;;;;;;;5076498;28;20060;-83
2023/01/02 12:22:52;;;;;;;18.00;4.88;;;;;;;;;;5044825;28;20057;-83
2023/01/02 12:25:48;;;;;;;16.25;4.07;;;;;;;;;;5040968;28;20037;-81
2023/01/02 12:28:24;;;;;;;17.33;4.38;;;;;;;;;;5049992;28;20061;-81
2023/01/02 12:31:05;;;;;;;13.15;3.90;;;;;;;;;;5061150;28;20040;-83
2023/01/02 12:33:34;;;;;;;15.88;4.13;;;;;;;;;;5045334;28;20061;-83
2023/01/02 12:36:14;;;;;;;15.98;3.42;;;;;;;;;;5045606;28;20561;-83
2023/01/02 12:38:54;;;;;;;11.18;3.40;;;;;;;;;;5041748;28;20045;-84
2023/01/02 12:41:39;;;;;;;14.25;3.30;;;;;;;;;;5040992;28;20060;-78
2023/01/02 12:44:08;;;;;;;12.00;3.50;;;;;;;;;;5042824;28;20387;-76
2023/01/02 12:46:40;;;;;;;13.95;3.47;;;;;;;;;;5042327;28;20043;-79
2023/01/02 12:49:22;;;;;;;15.80;4.22;;;;;;;;;;5035391;28;20037;-81
2023/01/02 12:51:57;;;;;;;15.45;3.40;;;;;;;;;;5039482;28;20438;-81
2023/01/02 12:54:27;;;;;;;14.23;3.75;;;;;;;;;;5037709;28;20045;-83
2023/01/02 12:56:53;;;;;;;10.85;3.20;;;;;;;;;;5050677;28;20086;-86
2023/01/02 12:59:22;;;;;;;17.65;3.60;;;;;;;;;;5038864;28;20037;-84
2023/01/02 13:01:58;;;;;;;17.63;4.07;;;;;;;;;;5040379;28;20497;-81
2023/01/02 13:04:27;;;;;;;14.75;3.85;;;;;;;;;;5047571;28;20045;-87
2023/01/02 13:06:56;;;;;;;15.27;4.65;;;;;;;;;;5052531;28;20036;-86
2023/01/02 13:09:29;;;;;;;18.90;5.03;;;;;;;;;;5046463;28;20117;-86
2023/01/02 13:12:06;;;;;;;17.07;4.90;;;;;;;;;;5075753;28;20049;-87
2023/01/02 13:14:38;;;;;;;17.83;4.70;;;;;;;;;;5049987;28;20052;-87
2023/01/02 13:17:23;;;;;;;15.50;4.47;;;;;;;;;;5054985;28;20076;-88
2023/01/02 13:19:55;;;;;;;14.85;4.15;;;;;;;;;;5047359;28;20040;-87
2023/01/02 13:22:41;;;;;;;14.77;4.20;;;;;;;;;;5048700;28;20041;-87
2023/01/02 13:25:15;;;;;;;10.57;3.50;;;;;;;;;;5045119;28;20055;-87
2023/01/02 13:27:42;;;;;;;17.30;4.00;;;;;;;;;;5046935;28;20095;-86
2023/01/02 13:30:28;;;;;;;13.43;4.88;;;;;;;;;;5047012;28;20453;-88
2023/01/02 13:32:56;;;;;;;12.57;4.13;;;;;;;;;;5048196;28;20113;-87
2023/01/02 13:35:22;;;;;;;8.57;4.00;;;;;;;;;;5085556;28;20053;-87
2023/01/02 13:37:50;;;;;;;16.73;4.80;;;;;;;;;;5054600;28;20037;-87
2023/01/02 13:40:25;;;;;;;15.60;4.25;;;;;;;;;;5049465;28;20117;-87
2023/01/02 13:42:59;;;;;;;9.75;4.03;;;;;;;;;;5049300;28;20037;-88
2023/01/02 13:45:30;;;;;;;13.68;4.43;;;;;;;;;;5046493;28;20161;-87
2023/01/02 13:47:58;;;;;;;9.13;4.35;;;;;;;;;;5082381;28;20041;-88
2023/01/02 13:50:29;;;;;;;20.52;4.30;;;;;;;;;;5052405;28;20045;-87
2023/01/02 13:53:10;;;;;;;11.25;4.88;;;;;;;;;;5059077;28;20392;-88
2023/01/02 13:55:39;;;;;;;8.77;4.40;;;;;;;;;;5050364;28;20036;-88
2023/01/02 13:58:16;;;;;;;9.35;3.90;;;;;;;;;;5080563;28;20049;-87
2023/01/02 14:00:46;;;;;;;9.00;4.22;;;;;;;;;;5083538;28;20099;-88
2023/01/02 14:03:21;;;;;;;12.35;4.68;;;;;;;;;;5044085;28;20412;-88
2023/01/02 14:05:59;;;;;;;11.07;4.00;;;;;;;;;;5066976;28;20085;-87
2023/01/02 14:08:32;;;;;;;14.00;4.57;;;;;;;;;;5045511;28;20045;-88
2023/01/02 14:11:04;;;;;;;14.13;4.35;;;;;;;;;;5052169;28;20087;-87
2023/01/02 14:13:36;;;;;;;14.57;4.25;;;;;;;;;;5053647;28;20052;-87
2023/01/02 14:16:14;;;;;;;10.95;3.90;;;;;;;;;;5045150;28;20055;-88
2023/01/02 14:18:40;;;;;;;10.55;3.80;;;;;;;;;;5080361;28;20045;-87
2023/01/02 14:21:06;;;;;;;12.18;4.68;;;;;;;;;;5054970;28;20367;-87
2023/01/02 14:23:39;;;;;;;11.40;4.32;;;;;;;;;;5047185;28;20737;-87
2023/01/02 14:26:06;;;;;;;12.00;4.22;;;;;;;;;;5049155;28;20118;-87
2023/01/02 14:28:36;;;;;;;13.25;4.32;;;;;;;;;;5085589;28;20041;-87
2023/01/02 14:31:04;;;;;;;9.95;3.90;;;;;;;;;;5047654;28;20076;-88
2023/01/02 14:33:32;;;;;;;13.55;4.47;;;;;;;;;;5047830;28;20073;-88
2023/01/02 14:36:02;;;;;;;10.05;3.92;;;;;;;;;;5050948;28;20088;-88
2023/01/02 14:38:30;;;;;;;11.98;4.30;;;;;;;;;;5081793;28;20489;-88
2023/01/02 14:43:28;;;;;;;14.35;4.30;;;;;;;;;;5050058;28;20045;-87
2023/01/02 14:43:43;;;;;;;11.38;4.07;;;;;;;;;;5057350;28;20041;-88
2023/01/02 14:46:27;;;;;;;13.63;3.92;;;;;;;;;;5053880;28;20458;-88
2023/01/02 14:49:13;;;;;;;15.65;4.05;;;;;;;;;;5035892;28;20045;-87
2023/01/02 14:51:41;;;;;;;6.78;3.13;;;;;;;;;;5042467;28;20467;-88
2023/01/02 14:54:23;;;;;;;9.57;3.65;;;;;;;;;;5051578;28;20048;-88